Etusivu
METAR-TAF:

METAR-TAF

Lentoasemat :

Pärnu, Viro

Pärnun lentoasema

Leveyspiiri: 58-25-09N, Pituuspiiri: 024-28-22E, korkeus merenpinnasta: 14 m

Tämänhetkinen sää

Tämä raportti tehtiin 12 tuntia ja 16 minuuttia sitten, kello 13.50 UTC
Tuuli 10 kn etelästä, vaihdellen kaakon ja etelän/lounaan välillä
Lämpötila 6°C
Kosteus 93%
Ilmanpaine 1009 hPa
Näkyvyys: 3600 m
Hajonneita pilviä 500 ft:n korkeudessa
utua

METAR: EEPU 241350Z 18010KT 130V210 3600 BR BKN005 06/05 Q1009

Aika: 04:06 (02:06 UTC)


TAF: puuttuu

Säähavainnot ja -ennusteet yli 4000 lentoasemalta (METAR- ja TAF-raportit).

Käytössä olevat sääasemat on merkitty karttaan keltaisilla ja punaisilla pisteillä.

Aseta hiiri pisteen päälle nähdäksesi sääaseman nimen.

Klikkaa sitten nähdäksesi säähavainnot ja -ennusteet.

Kartan vaihtaminen: klikkaa mustalla rastilla varustettuja vihreitä pisteitä, niin voit zoomata sisään; viivalla varustettua vihreää pistettä, niin voit zoomata ulos tai vihreitä nuolia, niin pääset viereisille kartoille.


METAR-TAF: